Time;durP1;ratioP1;P1;durP2;ratioP2;P2;SDS_P1;SDS_P2;PMS_P1;PMS_P2;Temp;Humidity;BMP_temperature;BMP_pressure;BME280_temperature;BME280_humidity;BME280_pressure;Samples;Min_cycle;Max_cycle;Signal;HPM_P1;HPM_P2
2022/03/27 00:01:52;;;;;;;17.23;13.57;;;8.70;99.90;;;;;;5068711;28;20447;-70
2022/03/27 00:04:17;;;;;;;16.70;14.23;;;8.70;99.90;;;;;;5072328;28;20174;-70
2022/03/27 00:06:43;;;;;;;17.10;14.20;;;8.70;99.90;;;;;;5069360;28;20185;-70
2022/03/27 00:09:08;;;;;;;17.40;13.17;;;8.70;99.90;;;;;;5069872;28;20200;-69
2022/03/27 00:11:34;;;;;;;16.20;14.00;;;8.70;99.90;;;;;;5069153;28;20190;-66
2022/03/27 00:14:05;;;;;;;14.87;12.63;;;8.70;99.90;;;;;;5071226;28;21471;-69
2022/03/27 00:16:31;;;;;;;18.80;13.63;;;8.70;99.90;;;;;;5069139;28;20339;-69
2022/03/27 00:18:57;;;;;;;17.37;13.17;;;8.80;99.90;;;;;;5069166;28;20493;-67
2022/03/27 00:21:23;;;;;;;17.23;13.30;;;8.80;99.90;;;;;;5073068;28;20427;-68
2022/03/27 00:23:50;;;;;;;14.50;12.93;;;8.80;99.90;;;;;;5073135;28;20699;-67
2022/03/27 00:26:16;;;;;;;17.20;12.93;;;8.90;99.90;;;;;;5073995;28;20518;-70
2022/03/27 00:28:43;;;;;;;17.83;12.67;;;8.90;99.90;;;;;;5059657;28;20459;-69
2022/03/27 00:31:10;;;;;;;16.80;13.13;;;8.90;99.90;;;;;;5075198;28;20439;-69
2022/03/27 00:33:36;;;;;;;13.50;11.73;;;8.90;99.90;;;;;;5082074;28;20538;-70
2022/03/27 00:36:04;;;;;;;12.53;11.10;;;8.90;99.90;;;;;;5071931;28;20470;-69
2022/03/27 00:38:30;;;;;;;12.87;11.23;;;8.90;99.90;;;;;;5068510;28;20447;-67
2022/03/27 00:40:56;;;;;;;12.50;11.17;;;8.90;99.90;;;;;;5068227;28;21240;-70
2022/03/27 00:43:23;;;;;;;11.83;10.50;;;8.90;99.90;;;;;;5069542;28;20187;-69
2022/03/27 00:45:49;;;;;;;12.97;11.20;;;8.90;99.90;;;;;;5068549;28;20440;-69
2022/03/27 00:48:19;;;;;;;12.77;11.40;;;8.80;99.90;;;;;;5082365;28;20443;-68
2022/03/27 00:50:47;;;;;;;13.20;11.53;;;8.80;99.90;;;;;;5062423;28;20478;-69
2022/03/27 00:53:12;;;;;;;14.30;11.93;;;8.70;99.90;;;;;;5082509;28;20439;-67
2022/03/27 00:55:38;;;;;;;15.87;12.90;;;8.60;99.90;;;;;;5048768;28;20487;-68
2022/03/27 00:58:04;;;;;;;14.60;11.87;;;8.60;99.90;;;;;;5072380;28;20270;-69
2022/03/27 01:00:47;;;;;;;14.60;12.27;;;8.50;99.90;;;;;;5068527;28;20439;-68
2022/03/27 01:03:21;;;;;;;15.67;12.13;;;8.40;99.90;;;;;;5080134;28;20446;-69
2022/03/27 01:05:48;;;;;;;13.77;11.40;;;8.30;99.90;;;;;;5082086;28;20454;-68
2022/03/27 01:08:14;;;;;;;13.23;11.83;;;8.10;99.90;;;;;;5064075;28;20436;-68
2022/03/27 01:10:42;;;;;;;14.20;11.47;;;8.10;99.90;;;;;;5068807;28;21198;-69
2022/03/27 01:13:14;;;;;;;13.00;10.10;;;8.00;99.90;;;;;;5061228;28;20444;-68
2022/03/27 01:15:45;;;;;;;13.93;11.40;;;8.00;99.90;;;;;;5073170;28;20463;-68
2022/03/27 01:18:12;;;;;;;11.50;10.17;;;7.80;99.90;;;;;;5069485;28;20432;-69
2022/03/27 01:20:40;;;;;;;11.50;9.67;;;7.80;99.90;;;;;;5066456;28;20415;-68
2022/03/27 01:23:09;;;;;;;14.57;10.87;;;7.80;99.90;;;;;;5065280;28;20444;-69
2022/03/27 01:25:35;;;;;;;14.17;10.30;;;7.80;99.90;;;;;;5077462;28;20451;-69
2022/03/27 01:28:01;;;;;;;12.90;10.77;;;7.80;99.90;;;;;;5066843;28;20515;-68
2022/03/27 01:30:27;;;;;;;13.10;10.97;;;7.70;99.90;;;;;;5073735;28;20539;-65
2022/03/27 01:32:53;;;;;;;14.00;10.30;;;7.70;99.90;;;;;;5068524;28;20197;-69
2022/03/27 01:35:19;;;;;;;12.20;10.20;;;7.70;99.90;;;;;;5070222;28;20428;-69
2022/03/27 01:37:46;;;;;;;14.20;11.07;;;7.70;99.90;;;;;;5080412;28;20442;-71
2022/03/27 01:40:13;;;;;;;13.53;10.80;;;7.60;99.90;;;;;;5080001;28;20273;-71
2022/03/27 01:42:38;;;;;;;12.17;10.47;;;7.60;99.90;;;;;;5070976;28;20517;-71
2022/03/27 01:45:05;;;;;;;12.90;10.30;;;7.50;99.90;;;;;;5068857;28;20474;-71
2022/03/27 01:47:31;;;;;;;13.70;11.10;;;7.50;99.90;;;;;;5078428;28;20174;-70
2022/03/27 01:49:57;;;;;;;13.90;10.50;;;7.40;99.90;;;;;;5081206;28;20589;-72
2022/03/27 01:52:22;;;;;;;14.30;11.07;;;7.40;99.90;;;;;;5066162;28;20185;-70
2022/03/27 01:54:48;;;;;;;11.87;10.50;;;7.40;99.90;;;;;;5083098;28;20281;-70
2022/03/27 01:57:15;;;;;;;12.40;10.67;;;7.30;99.90;;;;;;5068053;28;20221;-70
2022/03/27 01:59:41;;;;;;;12.20;9.47;;;7.20;99.90;;;;;;5073165;28;21053;-69
2022/03/27 02:02:06;;;;;;;12.57;9.60;;;7.20;99.90;;;;;;5070615;28;20451;-69
2022/03/27 02:04:32;;;;;;;12.23;9.77;;;7.10;99.90;;;;;;5083836;28;20198;-69
2022/03/27 02:06:57;;;;;;;15.70;11.00;;;7.10;99.90;;;;;;5068042;28;20198;-67
2022/03/27 02:09:23;;;;;;;15.03;10.30;;;7.10;99.90;;;;;;5070495;28;20189;-70
2022/03/27 02:11:48;;;;;;;13.00;10.23;;;7.10;99.90;;;;;;5075073;28;20193;-70
2022/03/27 02:14:14;;;;;;;13.17;10.40;;;7.10;99.90;;;;;;5068195;28;20182;-70
2022/03/27 02:16:40;;;;;;;13.10;9.77;;;7.10;99.90;;;;;;5067022;28;20284;-70
2022/03/27 02:19:08;;;;;;;13.52;9.60;;;7.10;99.90;;;;;;5072224;28;20194;-70
2022/03/27 02:21:34;;;;;;;15.30;10.60;;;7.00;99.90;;;;;;5066734;28;20178;-70
2022/03/27 02:24:03;;;;;;;13.57;10.03;;;7.00;99.90;;;;;;5068210;28;20431;-70
2022/03/27 02:26:29;;;;;;;13.70;9.35;;;7.00;99.90;;;;;;5064612;28;20439;-70
2022/03/27 02:28:54;;;;;;;11.63;9.67;;;6.90;99.90;;;;;;5076367;28;20188;-69
2022/03/27 02:31:20;;;;;;;14.17;10.50;;;6.90;99.90;;;;;;5069439;28;20497;-68
2022/03/27 02:33:45;;;;;;;13.80;10.00;;;6.90;99.90;;;;;;5078222;28;20250;-70
2022/03/27 02:36:11;;;;;;;13.67;10.40;;;6.90;99.90;;;;;;5072456;28;20204;-69
2022/03/27 02:38:37;;;;;;;12.70;9.70;;;6.80;99.90;;;;;;5075665;28;20188;-69
2022/03/27 02:41:06;;;;;;;15.37;10.90;;;6.80;99.90;;;;;;5067319;28;20182;-69
2022/03/27 02:43:32;;;;;;;14.73;10.90;;;6.70;99.90;;;;;;5081886;28;20450;-70
2022/03/27 02:45:58;;;;;;;14.77;11.27;;;6.60;99.90;;;;;;5073991;28;20189;-70
2022/03/27 02:48:24;;;;;;;12.30;10.23;;;6.60;99.90;;;;;;5069555;28;20189;-70
2022/03/27 02:50:49;;;;;;;13.40;10.60;;;6.50;99.90;;;;;;5079702;28;20871;-70
2022/03/27 02:53:16;;;;;;;18.47;11.03;;;6.50;99.90;;;;;;5079691;28;20235;-70
2022/03/27 02:55:41;;;;;;;14.52;10.57;;;6.40;99.90;;;;;;5073155;28;20220;-70
2022/03/27 02:58:07;;;;;;;13.73;10.37;;;6.30;99.90;;;;;;5072652;28;20628;-67
2022/03/27 03:00:33;;;;;;;16.73;11.48;;;6.30;99.90;;;;;;5070809;28;20169;-70
2022/03/27 03:02:59;;;;;;;15.20;10.60;;;6.30;99.90;;;;;;5081476;28;20176;-68
2022/03/27 03:05:24;;;;;;;12.80;9.63;;;6.10;99.90;;;;;;5085224;28;20488;-70
2022/03/27 03:07:50;;;;;;;14.33;10.37;;;6.10;99.90;;;;;;5071790;28;20166;-69
2022/03/27 03:10:16;;;;;;;14.77;10.57;;;6.10;99.90;;;;;;5086675;28;20274;-70
2022/03/27 03:12:42;;;;;;;12.70;10.00;;;6.00;99.90;;;;;;5072809;28;20178;-69
2022/03/27 03:15:08;;;;;;;15.03;9.83;;;6.00;99.90;;;;;;5070072;28;20189;-69
2022/03/27 03:17:35;;;;;;;12.45;10.02;;;5.90;99.90;;;;;;5081602;28;20220;-69
2022/03/27 03:20:00;;;;;;;11.18;9.95;;;5.90;99.90;;;;;;5077144;28;20181;-68
2022/03/27 03:22:27;;;;;;;13.07;10.63;;;5.80;99.90;;;;;;5079435;28;20173;-70
2022/03/27 03:24:53;;;;;;;14.95;11.43;;;5.80;99.90;;;;;;5070728;28;20276;-70
2022/03/27 03:27:18;;;;;;;13.33;9.40;;;5.80;99.90;;;;;;5080194;28;20268;-69
2022/03/27 03:29:45;;;;;;;14.43;10.27;;;5.70;99.90;;;;;;5083640;28;20658;-69
2022/03/27 03:32:11;;;;;;;16.10;11.10;;;5.70;99.90;;;;;;5072807;28;20179;-70
2022/03/27 03:34:37;;;;;;;11.87;9.47;;;5.60;99.90;;;;;;5072547;28;20713;-70
2022/03/27 03:37:03;;;;;;;14.27;10.43;;;5.60;99.90;;;;;;5078468;28;20706;-70
2022/03/27 03:39:28;;;;;;;14.00;10.65;;;5.50;99.90;;;;;;5073381;28;20892;-70
2022/03/27 03:41:54;;;;;;;14.60;10.90;;;5.50;99.90;;;;;;5074042;28;20193;-70
2022/03/27 03:44:20;;;;;;;14.20;10.10;;;5.50;99.90;;;;;;5070626;28;20232;-70
2022/03/27 03:46:46;;;;;;;14.37;10.23;;;5.40;99.90;;;;;;5066236;28;20916;-69
2022/03/27 03:49:12;;;;;;;12.45;9.88;;;5.40;99.90;;;;;;5065508;28;20178;-68
2022/03/27 03:51:37;;;;;;;15.10;11.30;;;5.40;99.90;;;;;;5067823;28;20182;-69
2022/03/27 03:54:06;;;;;;;15.83;11.43;;;5.40;99.90;;;;;;5086040;28;20466;-70
2022/03/27 03:56:32;;;;;;;14.27;10.00;;;5.30;99.90;;;;;;5068615;28;20235;-70
2022/03/27 03:58:58;;;;;;;14.57;11.47;;;5.30;99.90;;;;;;5069604;28;20565;-69
2022/03/27 04:01:23;;;;;;;14.57;11.10;;;5.20;99.90;;;;;;5077171;28;20435;-68
2022/03/27 04:03:49;;;;;;;15.00;10.87;;;5.20;99.90;;;;;;5068795;28;20582;-66
2022/03/27 04:06:16;;;;;;;16.60;11.30;;;5.20;99.90;;;;;;5069986;28;20194;-68
2022/03/27 04:08:42;;;;;;;14.82;11.27;;;5.10;99.90;;;;;;5066358;28;20205;-69
2022/03/27 04:11:07;;;;;;;14.17;10.87;;;5.10;99.90;;;;;;5071028;28;20193;-69
2022/03/27 04:13:33;;;;;;;15.27;11.40;;;5.10;99.90;;;;;;5073052;28;20178;-70
2022/03/27 04:16:00;;;;;;;17.33;11.80;;;5.10;99.90;;;;;;5072554;28;20205;-70
2022/03/27 04:18:25;;;;;;;15.80;11.85;;;5.00;99.90;;;;;;5071853;28;20198;-69
2022/03/27 04:20:51;;;;;;;16.90;10.87;;;5.00;99.90;;;;;;5071493;28;20196;-69
2022/03/27 04:23:17;;;;;;;19.87;11.70;;;5.00;99.90;;;;;;5071595;28;20173;-68
2022/03/27 04:25:43;;;;;;;16.57;11.70;;;4.90;99.90;;;;;;5071166;28;20440;-67
2022/03/27 04:28:10;;;;;;;18.27;12.47;;;4.80;99.90;;;;;;5076337;28;20221;-67
2022/03/27 04:30:37;;;;;;;18.10;11.77;;;4.80;99.90;;;;;;5070190;28;20185;-69
2022/03/27 04:33:03;;;;;;;15.93;11.45;;;4.70;99.90;;;;;;5063385;28;20186;-70
2022/03/27 04:35:29;;;;;;;16.93;12.23;;;4.60;99.90;;;;;;5071042;28;20193;-69
2022/03/27 04:37:54;;;;;;;17.20;12.20;;;4.60;99.90;;;;;;5071619;28;20243;-69
2022/03/27 04:40:20;;;;;;;17.37;12.00;;;4.60;99.90;;;;;;5072179;28;20191;-67
2022/03/27 04:42:45;;;;;;;16.37;10.50;;;4.60;99.90;;;;;;5071251;28;20807;-66
2022/03/27 04:45:11;;;;;;;17.37;11.10;;;4.60;99.90;;;;;;5071074;28;20348;-69
2022/03/27 04:47:38;;;;;;;14.75;10.73;;;4.50;99.90;;;;;;5072115;28;20249;-69
2022/03/27 04:50:05;;;;;;;17.17;11.60;;;4.50;99.90;;;;;;5071088;28;20778;-69
2022/03/27 04:52:30;;;;;;;18.05;11.52;;;4.50;99.90;;;;;;5072200;28;20608;-68
2022/03/27 04:54:56;;;;;;;15.67;11.93;;;4.50;99.90;;;;;;5072439;28;20228;-70
2022/03/27 04:57:22;;;;;;;17.97;12.00;;;4.40;99.90;;;;;;5083007;28;20529;-68
2022/03/27 04:59:48;;;;;;;22.57;13.17;;;4.40;99.90;;;;;;5067831;28;20545;-70
2022/03/27 05:02:14;;;;;;;14.40;11.38;;;4.40;99.90;;;;;;5071906;28;20243;-69
2022/03/27 05:04:41;;;;;;;15.63;11.13;;;4.40;99.90;;;;;;5070402;28;20177;-69
2022/03/27 05:07:07;;;;;;;17.25;11.82;;;4.40;99.90;;;;;;5069283;28;20188;-68
2022/03/27 05:09:33;;;;;;;16.60;10.77;;;4.30;99.90;;;;;;5071614;28;20194;-68
2022/03/27 05:11:58;;;;;;;17.97;12.07;;;4.30;99.90;;;;;;5069403;28;20439;-70
2022/03/27 05:14:24;;;;;;;18.20;12.17;;;4.30;99.90;;;;;;5071810;28;20447;-67
2022/03/27 05:16:50;;;;;;;15.60;11.13;;;4.30;99.90;;;;;;5074766;28;20208;-68
2022/03/27 05:19:16;;;;;;;19.52;12.02;;;4.30;99.90;;;;;;5086182;28;20181;-69
2022/03/27 05:21:41;;;;;;;17.73;12.30;;;4.30;99.90;;;;;;5069788;28;20189;-68
2022/03/27 05:24:09;;;;;;;16.67;11.57;;;4.30;99.90;;;;;;5071743;28;20177;-66
2022/03/27 05:26:36;;;;;;;18.88;12.27;;;4.30;99.90;;;;;;5069125;28;20292;-67
2022/03/27 05:29:08;;;;;;;16.02;11.45;;;4.30;99.90;;;;;;5070825;28;20209;-68
2022/03/27 05:31:34;;;;;;;15.75;11.80;;;4.30;99.90;;;;;;5061058;28;20178;-68
2022/03/27 05:34:00;;;;;;;13.83;11.13;;;4.30;99.90;;;;;;5070425;28;20189;-68
2022/03/27 05:36:26;;;;;;;19.92;12.20;;;4.40;99.90;;;;;;5069699;28;20209;-67
2022/03/27 05:38:52;;;;;;;16.23;11.63;;;4.40;99.90;;;;;;5072319;28;20256;-68
2022/03/27 05:41:17;;;;;;;18.03;11.20;;;4.40;99.90;;;;;;5073565;28;20269;-68
2022/03/27 05:43:43;;;;;;;16.50;12.13;;;4.40;99.90;;;;;;5071160;28;20185;-68
2022/03/27 05:46:08;;;;;;;17.63;12.20;;;4.50;99.90;;;;;;5066429;28;20197;-66
2022/03/27 05:48:34;;;;;;;16.77;12.07;;;4.60;99.90;;;;;;5068285;28;20185;-68
2022/03/27 05:50:59;;;;;;;15.43;11.37;;;4.60;99.90;;;;;;5070803;28;20186;-68
2022/03/27 05:53:25;;;;;;;17.53;11.63;;;4.70;99.90;;;;;;5067411;28;20245;-67
2022/03/27 05:55:50;;;;;;;16.77;11.70;;;4.70;99.90;;;;;;5075533;28;20243;-69
2022/03/27 05:58:17;;;;;;;16.73;12.40;;;4.80;99.90;;;;;;5069658;28;20205;-67
2022/03/27 06:00:43;;;;;;;18.52;12.00;;;4.80;99.90;;;;;;5084328;28;20269;-67
2022/03/27 06:03:08;;;;;;;13.93;10.87;;;4.80;99.90;;;;;;5070829;28;20260;-67
2022/03/27 06:05:34;;;;;;;19.03;11.90;;;4.80;99.90;;;;;;5071240;28;20185;-69
2022/03/27 06:08:00;;;;;;;16.80;11.90;;;4.80;99.90;;;;;;5075169;28;20178;-66
2022/03/27 06:10:32;;;;;;;18.97;11.97;;;4.90;99.90;;;;;;5070780;28;20284;-68
2022/03/27 06:12:59;;;;;;;18.80;12.30;;;4.90;99.90;;;;;;5070483;28;20185;-66
2022/03/27 06:15:25;;;;;;;15.18;11.80;;;4.90;99.90;;;;;;5065175;28;20182;-69
2022/03/27 06:17:53;;;;;;;20.67;11.93;;;4.90;99.90;;;;;;5074256;28;20675;-69
2022/03/27 06:20:20;;;;;;;16.30;11.50;;;5.00;99.90;;;;;;5065189;28;20217;-70
2022/03/27 06:22:46;;;;;;;20.77;13.30;;;5.10;99.90;;;;;;5065939;28;20178;-71
2022/03/27 06:25:14;;;;;;;15.00;12.37;;;5.10;99.90;;;;;;5072259;28;20181;-70
2022/03/27 06:27:40;;;;;;;18.52;12.80;;;5.20;99.90;;;;;;5072567;28;20937;-69
2022/03/27 06:30:08;;;;;;;18.67;12.60;;;5.30;99.90;;;;;;5070767;28;20200;-69
2022/03/27 06:32:34;;;;;;;15.30;11.40;;;5.30;99.90;;;;;;5070849;28;20426;-69
2022/03/27 06:35:00;;;;;;;18.17;11.70;;;5.40;99.90;;;;;;5061434;28;20226;-66
2022/03/27 06:37:26;;;;;;;17.00;12.07;;;5.40;99.90;;;;;;5060540;28;20652;-66
2022/03/27 06:39:54;;;;;;;16.35;11.70;;;5.50;99.90;;;;;;5068810;28;20177;-65
2022/03/27 06:42:20;;;;;;;14.93;10.75;;;5.60;99.90;;;;;;5076787;28;20548;-65
2022/03/27 06:44:45;;;;;;;13.90;11.30;;;5.60;99.90;;;;;;5079748;28;20195;-65
2022/03/27 06:47:11;;;;;;;16.90;11.83;;;5.80;99.90;;;;;;5076742;28;20443;-64
2022/03/27 06:49:36;;;;;;;14.23;10.73;;;5.90;99.90;;;;;;5068493;28;20537;-65
2022/03/27 06:52:02;;;;;;;16.90;10.70;;;5.90;99.90;;;;;;5072083;28;20204;-65
2022/03/27 06:54:29;;;;;;;15.60;10.37;;;6.00;99.90;;;;;;5068366;28;20236;-65
2022/03/27 06:56:55;;;;;;;14.00;10.30;;;6.10;99.90;;;;;;5069859;28;20219;-65
2022/03/27 06:59:20;;;;;;;16.07;11.17;;;6.20;99.90;;;;;;5075603;28;20189;-66
2022/03/27 07:04:30;;;;;;;14.13;10.55;;;6.50;99.90;;;;;;5068988;28;20729;-65
2022/03/27 07:06:56;;;;;;;14.93;10.73;;;6.50;99.90;;;;;;5075623;28;20189;-65
2022/03/27 07:09:21;;;;;;;13.30;10.20;;;6.60;99.90;;;;;;5074538;28;20202;-65
2022/03/27 07:11:47;;;;;;;13.90;9.80;;;6.70;99.90;;;;;;5069696;28;20186;-65
2022/03/27 07:14:13;;;;;;;11.33;9.33;;;6.70;99.90;;;;;;5069515;28;20200;-65
2022/03/27 07:16:40;;;;;;;14.80;10.57;;;6.80;99.90;;;;;;5073520;28;20649;-65
2022/03/27 07:19:06;;;;;;;13.80;9.83;;;7.00;99.90;;;;;;5073663;28;20181;-64
2022/03/27 07:21:31;;;;;;;15.30;11.70;;;7.10;99.90;;;;;;5071954;28;20434;-64
2022/03/27 07:23:58;;;;;;;16.57;11.37;;;7.20;99.90;;;;;;5062389;28;20193;-64
2022/03/27 07:26:23;;;;;;;14.82;11.20;;;7.30;99.90;;;;;;5076418;28;20238;-64
2022/03/27 07:28:49;;;;;;;15.90;12.60;;;7.40;99.90;;;;;;5077087;28;21007;-64
2022/03/27 07:31:15;;;;;;;15.97;11.03;;;7.40;99.90;;;;;;5063885;28;20235;-66
2022/03/27 07:33:41;;;;;;;15.43;11.37;;;7.40;99.90;;;;;;5079334;28;20189;-65
2022/03/27 07:36:07;;;;;;;15.70;11.17;;;7.60;99.90;;;;;;5066372;28;20645;-65
2022/03/27 07:38:33;;;;;;;16.17;12.67;;;7.70;99.90;;;;;;5064115;28;20519;-65
2022/03/27 07:40:59;;;;;;;14.80;11.40;;;7.90;99.90;;;;;;5072971;28;20182;-65
2022/03/27 07:43:25;;;;;;;15.10;11.20;;;8.00;99.90;;;;;;5076215;28;20439;-65
2022/03/27 07:45:51;;;;;;;15.07;12.50;;;8.10;99.90;;;;;;5069615;28;20451;-65
2022/03/27 07:48:16;;;;;;;16.00;11.60;;;8.30;99.90;;;;;;5068009;28;20436;-65
2022/03/27 07:50:42;;;;;;;14.33;11.27;;;8.30;99.90;;;;;;5069654;28;20190;-65
2022/03/27 07:53:08;;;;;;;11.43;10.23;;;8.50;99.90;;;;;;5074186;28;20193;-65
2022/03/27 07:55:37;;;;;;;12.90;11.20;;;8.60;99.90;;;;;;5068015;28;20704;-66
2022/03/27 07:58:03;;;;;;;12.07;10.30;;;8.80;99.90;;;;;;5083217;28;20192;-65
2022/03/27 08:00:29;;;;;;;14.13;10.80;;;9.00;99.90;;;;;;5080541;28;20943;-65
2022/03/27 08:02:55;;;;;;;13.53;10.27;;;9.20;99.90;;;;;;5075043;28;20434;-65
2022/03/27 08:05:21;;;;;;;12.33;10.23;;;9.40;99.90;;;;;;5085429;28;20196;-65
2022/03/27 08:07:47;;;;;;;13.70;11.07;;;9.50;99.90;;;;;;5063869;28;20802;-66
2022/03/27 08:10:15;;;;;;;12.47;10.70;;;9.70;99.90;;;;;;5075470;28;20419;-66
2022/03/27 08:12:41;;;;;;;13.50;10.53;;;9.90;99.90;;;;;;5080195;28;20177;-65
2022/03/27 08:15:07;;;;;;;12.97;10.10;;;10.10;99.90;;;;;;5073903;28;21176;-64
2022/03/27 08:17:33;;;;;;;15.27;11.60;;;10.40;99.90;;;;;;5086248;28;20217;-63
2022/03/27 08:19:58;;;;;;;13.00;11.37;;;10.50;99.90;;;;;;5085235;28;20811;-64
2022/03/27 08:22:24;;;;;;;13.67;11.13;;;10.70;99.90;;;;;;5083493;28;20424;-63
2022/03/27 08:24:50;;;;;;;12.50;10.60;;;10.90;99.90;;;;;;5084140;28;20177;-64
2022/03/27 08:27:16;;;;;;;12.73;10.60;;;11.20;99.90;;;;;;5089093;28;20264;-64
2022/03/27 08:29:42;;;;;;;14.70;11.50;;;11.40;99.90;;;;;;5090887;28;20829;-64
2022/03/27 08:32:12;;;;;;;11.10;10.00;;;11.70;99.90;;;;;;5079811;28;20253;-64
2022/03/27 08:34:39;;;;;;;12.30;10.93;;;12.20;99.90;;;;;;5071323;28;20894;-64
2022/03/27 08:37:08;;;;;;;11.93;10.63;;;12.60;99.90;;;;;;5089038;28;20468;-64
2022/03/27 08:39:34;;;;;;;11.30;10.10;;;13.20;99.90;;;;;;5072102;28;20412;-64
2022/03/27 08:42:00;;;;;;;11.53;10.33;;;13.70;98.70;;;;;;5073771;28;20431;-64
2022/03/27 08:44:28;;;;;;;11.17;10.07;;;14.40;94.60;;;;;;5080036;28;20434;-64
2022/03/27 08:46:55;;;;;;;12.17;10.97;;;15.00;91.80;;;;;;5084197;28;20423;-64
2022/03/27 08:49:32;;;;;;;12.23;11.03;;;15.70;89.50;;;;;;5070610;28;20519;-63
2022/03/27 08:52:00;;;;;;;12.57;11.47;;;16.40;82.90;;;;;;5072838;28;20465;-64
2022/03/27 08:54:36;;;;;;;12.67;11.57;;;17.20;76.00;;;;;;5064240;28;20984;-64
2022/03/27 08:57:24;;;;;;;11.60;10.60;;;17.70;70.40;;;;;;5071762;28;20463;-64
2022/03/27 08:59:54;;;;;;;12.07;11.07;;;18.40;65.50;;;;;;5079070;28;20976;-64
2022/03/27 09:02:23;;;;;;;12.60;11.50;;;18.80;60.20;;;;;;5077861;28;20435;-64
2022/03/27 09:04:54;;;;;;;11.50;10.43;;;19.20;59.10;;;;;;5087486;28;20431;-63
2022/03/27 09:07:23;;;;;;;12.13;11.23;;;19.70;58.00;;;;;;5089701;28;20904;-63
2022/03/27 09:09:53;;;;;;;11.63;10.77;;;20.30;53.80;;;;;;5090397;28;20419;-63
2022/03/27 09:12:20;;;;;;;12.37;11.37;;;20.70;51.90;;;;;;5090714;28;20441;-63
2022/03/27 09:14:46;;;;;;;12.07;11.17;;;21.00;47.80;;;;;;5090482;28;20448;-63
2022/03/27 09:17:13;;;;;;;12.40;11.50;;;21.10;47.60;;;;;;5090139;28;20886;-63
2022/03/27 09:19:45;;;;;;;12.67;11.57;;;21.10;45.20;;;;;;5060383;28;20442;-64
2022/03/27 09:22:14;;;;;;;11.57;10.67;;;21.40;45.90;;;;;;5050049;28;20404;-63
2022/03/27 09:24:40;;;;;;;11.77;10.87;;;22.20;44.00;;;;;;5049864;28;20450;-63
2022/03/27 09:27:06;;;;;;;11.73;10.83;;;22.90;41.60;;;;;;5049679;28;21073;-63
2022/03/27 09:30:06;;;;;;;11.90;11.00;;;22.70;41.80;;;;;;5050019;28;20420;-63
2022/03/27 09:32:35;;;;;;;11.83;10.93;;;22.90;40.70;;;;;;5069452;28;20778;-63
2022/03/27 09:35:08;;;;;;;10.57;9.77;;;23.10;38.60;;;;;;5069014;28;20424;-63
2022/03/27 09:37:39;;;;;;;11.00;10.20;;;23.60;38.00;;;;;;5069653;28;20448;-64
2022/03/27 09:40:06;;;;;;;11.40;10.60;;;23.40;34.70;;;;;;5069465;28;20414;-63
2022/03/27 09:42:32;;;;;;;10.90;10.10;;;23.30;34.40;;;;;;5069168;28;20445;-63
2022/03/27 09:45:25;;;;;;;10.87;10.07;;;23.60;35.50;;;;;;5069234;28;20814;-63
2022/03/27 09:47:55;;;;;;;10.67;9.97;;;23.80;32.90;;;;;;5060726;28;20205;-64
2022/03/27 09:50:29;;;;;;;11.33;10.53;;;23.90;32.60;;;;;;5068052;28;20527;-62
2022/03/27 09:53:19;;;;;;;11.70;10.77;;;23.90;31.90;;;;;;5069457;28;20405;-63
2022/03/27 09:55:46;;;;;;;11.20;10.40;;;24.00;31.90;;;;;;5069014;28;20405;-64
2022/03/27 09:58:12;;;;;;;11.63;10.70;;;23.80;30.40;;;;;;5069381;28;20404;-63
2022/03/27 10:00:38;;;;;;;10.57;9.77;;;23.80;30.20;;;;;;5069262;28;20417;-63
2022/03/27 10:03:10;;;;;;;11.57;10.77;;;24.20;30.70;;;;;;5083000;28;20823;-63
2022/03/27 10:05:36;;;;;;;9.80;9.10;;;24.30;30.30;;;;;;5083105;28;20185;-63
2022/03/27 10:08:03;;;;;;;10.50;9.80;;;24.90;29.90;;;;;;5050611;28;20497;-64
2022/03/27 10:10:29;;;;;;;11.40;10.60;;;25.30;28.80;;;;;;5048718;28;20485;-63
2022/03/27 10:12:56;;;;;;;11.53;10.63;;;25.20;27.80;;;;;;5049315;28;20399;-63
2022/03/27 10:15:25;;;;;;;11.13;10.33;;;25.10;28.30;;;;;;5060467;28;20428;-63
2022/03/27 10:18:17;;;;;;;12.03;11.23;;;25.90;27.30;;;;;;5069215;28;20473;-63
2022/03/27 10:20:46;;;;;;;11.50;10.70;;;25.70;27.80;;;;;;5061314;28;20434;-63
2022/03/27 10:23:23;;;;;;;11.47;10.67;;;25.40;28.20;;;;;;5068210;28;20829;-63
2022/03/27 10:26:01;;;;;;;9.50;8.90;;;25.10;27.90;;;;;;5067561;28;20452;-64
2022/03/27 10:28:27;;;;;;;11.20;10.40;;;25.60;26.50;;;;;;5049305;28;20420;-62
2022/03/27 10:30:53;;;;;;;11.40;10.60;;;26.50;25.50;;;;;;5057629;28;20425;-63
2022/03/27 10:33:23;;;;;;;11.10;10.30;;;26.40;24.50;;;;;;5068098;28;20458;-63
2022/03/27 10:36:05;;;;;;;10.77;9.97;;;26.10;24.10;;;;;;5069256;28;20164;-63
2022/03/27 10:38:38;;;;;;;10.20;9.50;;;26.30;24.20;;;;;;5068195;28;20432;-64
2022/03/27 10:41:16;;;;;;;10.70;10.00;;;26.80;22.90;;;;;;5069130;28;20867;-64
2022/03/27 10:43:56;;;;;;;10.07;9.43;;;27.20;22.10;;;;;;5068818;28;20450;-62
2022/03/27 10:46:26;;;;;;;10.67;9.87;;;27.80;21.80;;;;;;5049230;28;20519;-64
2022/03/27 10:48:53;;;;;;;11.50;10.70;;;27.60;22.60;;;;;;5048961;28;20762;-63
2022/03/27 10:51:25;;;;;;;11.20;10.40;;;27.60;22.20;;;;;;5049078;28;20411;-64
2022/03/27 10:54:20;;;;;;;11.27;10.47;;;27.60;21.40;;;;;;5064197;28;20848;-62
2022/03/27 10:56:48;;;;;;;10.87;10.07;;;27.30;21.50;;;;;;5055500;28;20511;-62
2022/03/27 10:59:17;;;;;;;8.50;7.90;;;27.70;22.00;;;;;;5068264;28;20766;-62
2022/03/27 11:01:44;;;;;;;9.80;9.10;;;28.20;21.30;;;;;;5066785;28;20415;-63
2022/03/27 11:04:21;;;;;;;9.67;8.97;;;29.00;20.90;;;;;;5065025;28;20435;-63
2022/03/27 11:06:51;;;;;;;9.30;8.70;;;28.70;20.00;;;;;;5078150;28;20804;-63
2022/03/27 11:09:38;;;;;;;9.63;9.03;;;29.00;19.40;;;;;;5092593;28;20758;-63
2022/03/27 11:12:06;;;;;;;8.77;8.27;;;28.80;19.30;;;;;;5080191;28;20892;-62
2022/03/27 11:14:56;;;;;;;8.47;7.97;;;29.30;17.40;;;;;;5092584;28;20403;-63
2022/03/27 11:17:43;;;;;;;8.57;8.00;;;29.10;16.00;;;;;;5076700;28;20419;-63
2022/03/27 11:20:12;;;;;;;8.03;7.53;;;29.20;16.10;;;;;;5084119;28;20427;-63
2022/03/27 11:22:48;;;;;;;8.00;7.50;;;28.30;16.00;;;;;;5092302;28;20415;-63
2022/03/27 11:25:23;;;;;;;8.10;7.60;;;28.80;17.20;;;;;;5084791;28;20445;-63
2022/03/27 11:28:05;;;;;;;8.03;7.63;;;28.70;16.20;;;;;;5086759;28;20465;-63
2022/03/27 11:30:33;;;;;;;8.93;8.33;;;29.10;16.70;;;;;;5080561;28;20428;-63
2022/03/27 11:33:24;;;;;;;7.90;7.40;;;29.10;16.80;;;;;;5081274;28;20917;-63
2022/03/27 11:36:04;;;;;;;9.23;8.63;;;29.30;16.90;;;;;;5069764;28;20424;-63
2022/03/27 11:38:35;;;;;;;8.57;8.00;;;28.80;16.30;;;;;;5084378;28;20410;-63
2022/03/27 11:41:25;;;;;;;8.27;7.77;;;28.90;16.70;;;;;;5079432;28;20422;-63
2022/03/27 11:43:52;;;;;;;8.17;7.70;;;29.40;15.50;;;;;;5077456;28;20477;-63
2022/03/27 11:46:29;;;;;;;7.93;7.43;;;28.80;15.80;;;;;;5082672;28;20495;-63
2022/03/27 11:48:56;;;;;;;8.37;7.87;;;28.80;15.90;;;;;;5083666;28;20404;-63
2022/03/27 11:51:24;;;;;;;8.50;8.00;;;29.40;15.80;;;;;;5084408;28;20999;-63
2022/03/27 11:53:51;;;;;;;7.70;7.30;;;29.70;15.60;;;;;;5091607;28;20507;-63
2022/03/27 11:56:17;;;;;;;8.53;7.97;;;29.80;15.30;;;;;;5091733;28;20513;-64
2022/03/27 11:58:43;;;;;;;9.17;8.57;;;29.50;16.40;;;;;;5084856;28;20442;-63
2022/03/27 12:01:09;;;;;;;9.13;8.53;;;29.00;16.20;;;;;;5082459;28;20403;-63
2022/03/27 12:03:37;;;;;;;9.00;8.40;;;28.50;16.50;;;;;;5068545;28;20191;-63
2022/03/27 12:06:05;;;;;;;8.60;8.10;;;29.30;15.50;;;;;;5064715;28;20467;-63
2022/03/27 12:08:32;;;;;;;8.40;7.80;;;29.80;15.40;;;;;;5079198;28;20419;-63
2022/03/27 12:11:04;;;;;;;8.10;7.60;;;29.60;15.30;;;;;;5069881;28;20427;-63
2022/03/27 12:13:35;;;;;;;8.87;8.17;;;29.20;15.70;;;;;;5091472;28;20434;-63
2022/03/27 12:16:01;;;;;;;9.23;8.60;;;29.90;15.40;;;;;;5088560;28;20989;-63
2022/03/27 12:18:30;;;;;;;8.27;7.57;;;30.00;15.60;;;;;;5078570;28;20446;-63
2022/03/27 12:20:57;;;;;;;8.07;7.57;;;29.60;15.40;;;;;;5084441;28;20185;-63
2022/03/27 12:23:24;;;;;;;7.70;7.30;;;29.60;15.20;;;;;;5091315;28;20468;-63
2022/03/27 12:32:13;;;;;;;7.03;6.63;;;29.30;14.90;;;;;;5070902;28;20881;-63
2022/03/27 12:34:44;;;;;;;7.73;7.23;;;30.10;13.50;;;;;;5072767;28;20514;-63
2022/03/27 12:37:22;;;;;;;8.40;7.90;;;29.70;13.60;;;;;;5078808;28;20446;-63
2022/03/27 12:39:47;;;;;;;8.43;7.93;;;29.20;13.80;;;;;;5090683;28;20415;-63
2022/03/27 12:42:42;;;;;;;8.13;7.63;;;28.60;14.50;;;;;;5090916;28;20541;-63
2022/03/27 12:45:10;;;;;;;8.60;8.10;;;28.00;15.10;;;;;;5060298;28;20217;-63
2022/03/27 12:47:39;;;;;;;7.83;7.33;;;28.00;15.50;;;;;;5070517;28;20783;-63
2022/03/27 12:50:12;;;;;;;7.30;6.90;;;28.60;14.60;;;;;;5069289;28;20925;-63
2022/03/27 12:52:52;;;;;;;7.43;7.03;;;28.90;14.90;;;;;;5070809;28;20407;-63